Time,TemperatureF,DewpointF,PressureIn,WindDirection,WindDirectionDegrees,WindSpeedMPH,WindSpeedGustMPH,Humidity,HourlyPrecipIn,Conditions,Clouds,dailyrainin,SoftwareType,DateUTC
2013-10-02 00:00:00,75.1,65.9,30.09,NE,45,6.0,14.0,73,0.00,,---,0.00,VWS V14.01,2013-10-02 04:00:00,
2013-10-02 01:00:00,75.5,65.8,30.09,NE,45,6.0,13.0,72,0.00,,---,0.00,VWS V14.01,2013-10-02 05:00:00,
2013-10-02 02:00:00,75.1,64.7,30.08,NE,45,5.0,11.0,70,0.00,,---,0.00,VWS V14.01,2013-10-02 06:00:00,
2013-10-02 03:00:00,74.7,64.7,30.08,NE,45,4.0,11.0,71,0.00,,---,0.00,VWS V14.01,2013-10-02 07:00:00,
2013-10-02 04:00:00,74.7,64.3,30.07,NE,45,4.0,9.0,70,0.00,,---,0.00,VWS V14.01,2013-10-02 08:00:00,
2013-10-02 05:00:00,74.5,64.5,30.06,NE,45,3.0,8.0,71,0.00,,---,0.00,VWS V14.01,2013-10-02 09:00:00,
2013-10-02 06:00:00,74.4,64.0,30.05,NNE,22,3.0,8.0,70,0.00,,---,0.00,VWS V14.01,2013-10-02 10:00:00,
2013-10-02 07:00:00,74.6,65.0,30.05,NNE,22,3.0,8.0,72,0.00,,---,0.00,VWS V14.01,2013-10-02 11:00:00,
2013-10-02 08:00:00,74.6,65.0,30.07,NNE,22,4.0,9.0,72,0.00,,---,0.00,VWS V14.01,2013-10-02 12:00:00,
2013-10-02 09:00:00,74.8,65.2,30.08,NNE,22,4.0,9.0,72,0.00,,---,0.00,VWS V14.01,2013-10-02 13:00:00,
2013-10-02 10:00:00,76.4,65.9,30.10,NE,45,5.0,11.0,70,0.00,,---,0.00,VWS V14.01,2013-10-02 14:00:00,
2013-10-02 11:00:00,77.4,66.4,30.11,NE,45,6.0,11.0,69,0.00,,---,0.00,VWS V14.01,2013-10-02 15:00:00,
2013-10-02 12:00:00,78.0,67.0,30.11,NE,45,6.0,13.0,69,0.00,,---,0.00,VWS V14.01,2013-10-02 16:00:00,
2013-10-02 13:00:00,78.6,67.6,30.11,NE,45,6.0,12.0,69,0.00,,---,0.00,VWS V14.01,2013-10-02 17:00:00,
2013-10-02 14:00:00,79.4,68.8,30.09,NE,45,7.0,13.0,70,0.00,,---,0.00,VWS V14.01,2013-10-02 18:00:00,
2013-10-02 15:00:00,79.3,68.7,30.08,NE,45,7.0,14.0,70,0.00,,---,0.00,VWS V14.01,2013-10-02 19:00:00,
2013-10-02 16:00:00,79.1,68.1,30.07,NNE,22,7.0,15.0,69,0.00,,---,0.00,VWS V14.01,2013-10-02 20:00:00,
2013-10-02 17:00:00,79.1,68.5,30.06,NNE,22,6.0,14.0,70,0.00,,---,0.00,VWS V14.01,2013-10-02 21:00:00,
2013-10-02 18:00:00,78.4,69.0,30.06,NNE,22,6.0,13.0,73,0.00,,---,0.00,VWS V14.01,2013-10-02 22:00:00,
2013-10-02 19:00:00,77.3,68.8,30.07,NNE,22,5.0,12.0,75,0.00,,---,0.00,VWS V14.01,2013-10-02 23:00:00,
2013-10-02 20:00:00,76.0,68.7,30.06,NNE,22,6.0,12.0,78,0.00,,---,0.00,VWS V14.01,2013-10-03 00:00:00,
2013-10-02 21:00:00,75.6,69.0,30.07,NNE,22,5.0,12.0,80,0.00,,---,0.00,VWS V14.01,2013-10-03 01:00:00,
2013-10-02 22:00:00,75.7,69.5,30.08,NNE,22,6.0,12.0,81,0.00,,---,0.00,VWS V14.01,2013-10-03 02:00:00,
2013-10-02 23:00:00,75.8,69.6,30.08,NE,45,6.0,14.0,81,0.00,,---,0.00,VWS V14.01,2013-10-03 03:00:00,